LUKK/KIV METAR and TAF weather

Enter ICAO airport designator
Station Type Date Time Source
LUKK METAR 2019/08/25 20:00 UTC NOAA

LUKK 252000Z 06006KT CAVOK 27/12 Q1022 R08/CLRD// NOSIG


Station Type Date Time Source
LUKK Decoded METAR 2019/08/25 20:00 UTC NOAA

Station name not available
Aug 25, 2019 - 04:00 PM EDT / 2019.08.25 2000 UTC
Wind: from the ENE (060 degrees) at 7 MPH (6 KT):0
Visibility: greater than 7 mile(s):0
Temperature: 80 F (27 C)
Dew Point: 53 F (12 C)
Relative Humidity: 39%
Pressure (altimeter): 30.18 in. Hg (1022 hPa)
ob: LUKK 252000Z 06006KT CAVOK 27/12 Q1022 R08/CLRD// NOSIG
cycle: 20

Station Type Date Time Source
LUKK TAF 2019/08/25 18:19 UTC NOAA

TAF LUKK 251720Z 2518/2618 03006KT CAVOK

Example: see airport list